Terminal Aerodrome Forecast
Issued by NWS

Home | Current Version | Previous Version | Text Only | Print | Product List | Glossary On
Versions: 1 2 3 4 5 6 7 8 9 10 11 12
835
FTUS45 KABQ 142323
TAFROW
TAF
KROW 142323Z 1500/1524 21008KT P6SM SCT200
     FM150600 31012KT P6SM FEW200
     FM151200 VRB06KT P6SM FEW200
     FM152100 17010KT P6SM FEW200=

USA.gov is the U.S. government's official web portal to all federal, state and local government web resources and services.